createdAt,value
2018-03-16T00:02:24.252Z,8.30
2018-03-16T00:04:50.463Z,8.30
2018-03-16T00:07:17.390Z,8.40
2018-03-16T00:09:44.321Z,8.30
2018-03-16T00:12:12.284Z,8.40
2018-03-16T00:14:38.449Z,8.40
2018-03-16T00:17:04.529Z,8.40
2018-03-16T00:19:30.775Z,8.40
2018-03-16T00:21:57.033Z,8.40
2018-03-16T00:24:23.124Z,8.40
2018-03-16T00:26:49.329Z,8.50
2018-03-16T00:29:15.496Z,8.40
2018-03-16T00:31:42.506Z,8.20
2018-03-16T00:34:08.755Z,8.10
2018-03-16T00:36:35.084Z,8.20
2018-03-16T00:39:01.624Z,8.20
2018-03-16T00:41:27.836Z,8.20
2018-03-16T00:43:54.042Z,8.20
2018-03-16T00:46:20.194Z,8.20
2018-03-16T00:48:46.399Z,8.20
2018-03-16T00:51:12.448Z,8.20
2018-03-16T00:53:38.668Z,8.30
2018-03-16T00:56:05.202Z,8.30
2018-03-16T00:58:31.346Z,8.30
2018-03-16T01:01:00.646Z,8.40
2018-03-16T01:03:26.801Z,8.50
2018-03-16T01:05:52.964Z,8.50
2018-03-16T01:08:19.012Z,8.40
2018-03-16T01:10:45.970Z,8.20
2018-03-16T01:13:12.797Z,8.20
2018-03-16T01:15:39.743Z,8.20
2018-03-16T01:18:05.925Z,8.20
2018-03-16T01:20:39.062Z,8.20
2018-03-16T01:23:06.211Z,8.30
2018-03-16T01:25:32.339Z,8.30
2018-03-16T01:27:58.876Z,8.30
2018-03-16T01:30:24.999Z,8.30
2018-03-16T01:32:51.070Z,8.40
2018-03-16T01:35:17.265Z,8.40
2018-03-16T01:37:43.369Z,8.50
2018-03-16T01:40:09.474Z,8.50
2018-03-16T01:42:35.945Z,8.50
2018-03-16T01:45:03.780Z,8.50
2018-03-16T01:47:29.910Z,8.50
2018-03-16T01:49:56.449Z,8.50
2018-03-16T01:52:22.537Z,8.50
2018-03-16T01:54:48.797Z,8.50
2018-03-16T01:57:14.950Z,8.60
2018-03-16T01:59:42.227Z,8.70
2018-03-16T02:02:09.061Z,8.70
2018-03-16T02:04:35.962Z,8.70
2018-03-16T02:07:02.095Z,8.70
2018-03-16T02:09:28.760Z,8.70
2018-03-16T02:11:55.316Z,8.70
2018-03-16T02:14:21.493Z,8.70
2018-03-16T02:16:47.724Z,8.70
2018-03-16T02:19:14.826Z,8.70
2018-03-16T02:21:41.138Z,8.70
2018-03-16T02:24:07.255Z,8.70
2018-03-16T02:26:35.953Z,8.70
2018-03-16T02:29:02.672Z,8.70
2018-03-16T02:31:28.997Z,8.70
2018-03-16T02:33:55.247Z,8.70
2018-03-16T02:36:23.128Z,8.60
2018-03-16T02:38:49.335Z,8.60
2018-03-16T02:41:15.462Z,8.60
2018-03-16T02:43:42.603Z,8.70
2018-03-16T02:46:08.711Z,8.60
2018-03-16T02:48:34.841Z,8.70
2018-03-16T02:51:01.203Z,8.50
2018-03-16T02:53:27.710Z,8.50
2018-03-16T02:55:53.984Z,8.40
2018-03-16T02:58:20.881Z,8.40
2018-03-16T03:00:46.959Z,8.30
2018-03-16T03:03:13.041Z,8.40
2018-03-16T03:05:39.231Z,8.40
2018-03-16T03:08:06.260Z,8.40
2018-03-16T03:10:32.368Z,8.40
2018-03-16T03:12:58.630Z,8.40
2018-03-16T03:15:25.312Z,8.40
2018-03-16T03:17:51.479Z,8.30
2018-03-16T03:20:17.580Z,8.30
2018-03-16T03:22:43.774Z,8.30
2018-03-16T03:25:09.904Z,8.40
2018-03-16T03:27:36.067Z,8.30
2018-03-16T03:30:02.245Z,8.40
2018-03-16T03:32:28.521Z,8.30
2018-03-16T03:34:54.736Z,8.40
2018-03-16T03:37:22.442Z,8.40
2018-03-16T03:39:48.604Z,8.40
2018-03-16T03:42:14.745Z,8.40
2018-03-16T03:44:41.597Z,8.40
2018-03-16T03:47:07.655Z,8.30
2018-03-16T03:49:34.078Z,8.40
2018-03-16T03:52:00.247Z,8.30
2018-03-16T03:54:26.858Z,8.40
2018-03-16T03:56:52.918Z,8.40
2018-03-16T03:59:19.077Z,8.50
2018-03-16T04:01:46.306Z,8.50
2018-03-16T04:04:13.161Z,8.40
2018-03-16T04:06:39.289Z,8.30
2018-03-16T04:09:05.478Z,8.30
2018-03-16T04:11:31.537Z,8.40
2018-03-16T04:13:58.526Z,8.30
2018-03-16T04:16:24.663Z,8.30
2018-03-16T04:18:51.180Z,8.30
2018-03-16T04:21:17.310Z,8.30
2018-03-16T04:23:43.660Z,8.30
2018-03-16T04:26:10.031Z,8.30
2018-03-16T04:28:36.109Z,8.30
2018-03-16T04:31:02.328Z,8.30
2018-03-16T04:33:29.311Z,8.30
2018-03-16T04:35:55.717Z,8.30
2018-03-16T04:38:21.822Z,8.40
2018-03-16T04:40:47.866Z,8.40
2018-03-16T04:43:14.688Z,8.40
2018-03-16T04:45:40.866Z,8.30
2018-03-16T04:48:07.014Z,8.30
2018-03-16T04:50:33.119Z,8.30
2018-03-16T04:52:59.906Z,8.40
2018-03-16T04:55:26.139Z,8.30
2018-03-16T04:57:52.229Z,8.40
2018-03-16T05:00:18.327Z,8.40
2018-03-16T05:02:44.493Z,8.40
2018-03-16T05:05:10.562Z,8.40
2018-03-16T05:07:37.311Z,8.50
2018-03-16T05:10:03.429Z,8.40
2018-03-16T05:12:30.245Z,8.40
2018-03-16T05:14:57.181Z,8.30
2018-03-16T05:17:23.485Z,8.30
2018-03-16T05:19:49.594Z,8.30
2018-03-16T05:22:15.714Z,8.20
2018-03-16T05:24:41.901Z,8.30
2018-03-16T05:27:08.009Z,8.20
2018-03-16T05:29:35.819Z,8.20
2018-03-16T05:32:01.909Z,8.30
2018-03-16T05:34:28.514Z,8.20
2018-03-16T05:36:54.583Z,8.20
2018-03-16T05:39:20.695Z,8.20
2018-03-16T05:41:47.318Z,8.30
2018-03-16T05:44:13.361Z,8.30
2018-03-16T05:46:39.646Z,8.30
2018-03-16T05:49:05.830Z,8.30
2018-03-16T05:51:31.860Z,8.30
2018-03-16T05:53:57.960Z,8.30
2018-03-16T05:56:24.275Z,8.30
2018-03-16T05:58:50.468Z,8.30
2018-03-16T06:01:16.629Z,8.30
2018-03-16T06:03:43.210Z,8.30
2018-03-16T06:06:10.112Z,8.30
2018-03-16T06:08:36.167Z,8.20
2018-03-16T06:11:02.370Z,8.20
2018-03-16T06:13:28.438Z,8.30
2018-03-16T06:15:54.620Z,8.30
2018-03-16T06:18:20.698Z,8.30
2018-03-16T06:20:47.567Z,8.30
2018-03-16T06:23:14.838Z,8.30
2018-03-16T06:25:41.651Z,8.30
2018-03-16T06:28:07.747Z,8.30
2018-03-16T06:30:34.805Z,8.30
2018-03-16T06:33:00.915Z,8.30
2018-03-16T06:35:26.995Z,8.40
2018-03-16T06:37:53.077Z,8.40
2018-03-16T06:40:19.195Z,8.40
2018-03-16T06:42:45.298Z,8.40
2018-03-16T06:45:13.103Z,8.40
2018-03-16T06:47:39.315Z,8.40
2018-03-16T06:50:05.510Z,8.40
2018-03-16T06:52:32.389Z,8.30
2018-03-16T06:54:59.239Z,8.30
2018-03-16T06:57:26.785Z,8.30
2018-03-16T06:59:53.483Z,8.30
2018-03-16T07:02:19.871Z,8.30
2018-03-16T07:04:46.051Z,8.30
2018-03-16T07:07:12.263Z,8.30
2018-03-16T07:09:39.174Z,8.40
2018-03-16T07:12:05.595Z,8.40
2018-03-16T07:14:31.639Z,8.30
2018-03-16T07:16:58.398Z,8.20
2018-03-16T07:19:24.600Z,8.20
2018-03-16T07:21:52.574Z,8.20
2018-03-16T07:24:18.812Z,8.30
2018-03-16T07:26:45.804Z,8.30
2018-03-16T07:29:12.027Z,8.30
2018-03-16T07:31:38.256Z,8.30
2018-03-16T07:34:07.616Z,8.20
2018-03-16T07:36:34.650Z,8.20
2018-03-16T07:39:01.183Z,8.20
2018-03-16T07:41:28.128Z,8.20
2018-03-16T07:43:54.976Z,8.20
2018-03-16T07:46:21.203Z,8.10
2018-03-16T07:48:48.568Z,8.10
2018-03-16T07:51:16.492Z,8.20
2018-03-16T07:53:42.630Z,8.10
2018-03-16T07:56:08.859Z,8.20
2018-03-16T07:58:35.061Z,8.10
2018-03-16T08:01:03.142Z,8.20
2018-03-16T08:03:29.391Z,8.30
2018-03-16T08:05:56.307Z,8.30
2018-03-16T08:08:22.790Z,8.30
2018-03-16T08:10:49.515Z,8.20
2018-03-16T08:13:15.693Z,8.20
2018-03-16T08:15:41.851Z,8.20
2018-03-16T08:18:08.810Z,8.20
2018-03-16T08:20:35.479Z,8.20
2018-03-16T08:23:01.607Z,8.30
2018-03-16T08:25:27.818Z,8.20
2018-03-16T08:27:54.687Z,8.30
2018-03-16T08:30:21.207Z,8.30
2018-03-16T08:32:47.371Z,8.40
2018-03-16T08:35:13.555Z,8.40
2018-03-16T08:37:40.392Z,8.40
2018-03-16T08:40:06.884Z,8.30
2018-03-16T08:42:33.184Z,8.40
2018-03-16T08:45:01.130Z,8.40
2018-03-16T08:47:27.280Z,8.40
2018-03-16T08:49:54.135Z,8.40
2018-03-16T08:52:23.508Z,8.40
2018-03-16T08:54:49.606Z,8.40
2018-03-16T08:57:16.691Z,8.40
2018-03-16T08:59:43.529Z,8.50
2018-03-16T09:02:09.966Z,8.40
2018-03-16T09:04:37.278Z,8.40
2018-03-16T09:07:04.165Z,8.50
2018-03-16T09:09:30.233Z,8.40
2018-03-16T09:11:57.006Z,8.50
2018-03-16T09:14:23.265Z,8.50
2018-03-16T09:16:49.447Z,8.50
2018-03-16T09:19:15.948Z,8.50
2018-03-16T09:21:42.432Z,8.50
2018-03-16T09:24:08.739Z,8.50
2018-03-16T09:26:34.845Z,8.50
2018-03-16T09:29:00.975Z,8.50
2018-03-16T09:31:27.234Z,8.50
2018-03-16T09:33:54.669Z,8.50
2018-03-16T09:36:20.881Z,8.60
2018-03-16T09:38:47.901Z,8.70
2018-03-16T09:41:14.864Z,8.70
2018-03-16T09:43:41.014Z,8.70
2018-03-16T09:46:07.963Z,8.70
2018-03-16T09:48:35.523Z,8.70
2018-03-16T09:51:01.593Z,8.80
2018-03-16T09:53:28.765Z,8.80
2018-03-16T09:55:55.096Z,8.80
2018-03-16T09:58:22.016Z,8.90
2018-03-16T10:00:48.394Z,8.90
2018-03-16T10:03:14.792Z,8.90
2018-03-16T10:05:43.484Z,9.00
2018-03-16T10:08:09.728Z,9.10
2018-03-16T10:10:36.125Z,9.10
2018-03-16T10:13:03.066Z,9.40
2018-03-16T10:15:30.476Z,9.30
2018-03-16T10:17:56.544Z,9.30
2018-03-16T10:20:22.637Z,9.30
2018-03-16T10:22:48.910Z,9.30
2018-03-16T10:25:14.967Z,9.30
2018-03-16T10:27:42.280Z,9.50
2018-03-16T10:30:08.346Z,9.40
2018-03-16T10:32:35.048Z,9.50
2018-03-16T10:35:02.060Z,9.50
2018-03-16T10:37:29.321Z,9.40
2018-03-16T10:39:56.776Z,9.50
2018-03-16T10:42:22.935Z,9.40
2018-03-16T10:44:49.271Z,9.50
2018-03-16T10:47:16.735Z,9.60
2018-03-16T10:49:42.902Z,9.70
2018-03-16T10:52:09.049Z,9.80
2018-03-16T10:54:35.160Z,10.00
2018-03-16T10:57:03.292Z,10.00
2018-03-16T10:59:30.180Z,10.00
2018-03-16T11:01:56.677Z,10.00
2018-03-16T11:04:28.633Z,10.10
2018-03-16T11:07:00.741Z,10.00
2018-03-16T11:09:26.959Z,10.10
2018-03-16T11:11:53.121Z,10.30
2018-03-16T11:14:20.332Z,10.30
2018-03-16T11:16:47.828Z,10.30
2018-03-16T11:19:13.988Z,10.20
2018-03-16T11:21:40.597Z,10.30
2018-03-16T11:24:08.334Z,10.40
2018-03-16T11:26:34.438Z,10.40
2018-03-16T11:29:00.973Z,10.50
2018-03-16T11:31:27.463Z,10.50
2018-03-16T11:33:55.640Z,10.50
2018-03-16T11:36:23.573Z,10.50
2018-03-16T11:38:49.884Z,10.50
2018-03-16T11:41:16.406Z,10.60
2018-03-16T11:43:42.446Z,10.40
2018-03-16T11:46:11.053Z,10.40
2018-03-16T11:48:37.169Z,10.40
2018-03-16T11:51:03.631Z,10.50
2018-03-16T11:53:29.761Z,10.50
2018-03-16T11:55:56.617Z,10.50
2018-03-16T11:58:22.776Z,10.40
2018-03-16T12:00:49.107Z,10.40
2018-03-16T12:03:16.524Z,10.50
2018-03-16T12:05:43.459Z,10.40
2018-03-16T12:08:09.723Z,10.30
2018-03-16T12:10:36.904Z,10.40
2018-03-16T12:13:03.166Z,10.50
2018-03-16T12:15:29.628Z,10.50
2018-03-16T12:17:55.769Z,10.40
2018-03-16T12:20:22.693Z,10.40
2018-03-16T12:22:49.747Z,10.40
2018-03-16T12:25:16.952Z,10.50
2018-03-16T12:27:43.057Z,10.60
2018-03-16T12:30:09.242Z,10.70
2018-03-16T12:32:38.637Z,10.80
2018-03-16T12:35:05.955Z,10.70
2018-03-16T12:37:32.165Z,10.70
2018-03-16T12:39:58.311Z,10.60
2018-03-16T12:42:25.155Z,10.60
2018-03-16T12:44:51.321Z,10.60
2018-03-16T12:47:17.669Z,10.60
2018-03-16T12:49:43.760Z,10.60
2018-03-16T12:52:10.446Z,10.60
2018-03-16T12:54:37.305Z,10.50
2018-03-16T12:57:04.111Z,10.50
2018-03-16T12:59:30.209Z,10.40
2018-03-16T13:01:59.083Z,10.50
2018-03-16T13:04:25.875Z,10.50
2018-03-16T13:06:52.071Z,10.60
2018-03-16T13:09:19.581Z,10.60
2018-03-16T13:11:46.159Z,10.60
2018-03-16T13:14:13.581Z,10.50
2018-03-16T13:16:39.796Z,10.40
2018-03-16T13:19:05.925Z,10.20
2018-03-16T13:21:32.149Z,10.00
2018-03-16T13:23:58.976Z,9.90
2018-03-16T13:26:27.683Z,10.10
2018-03-16T13:28:53.902Z,10.00
2018-03-16T13:31:20.187Z,10.10
2018-03-16T13:33:46.477Z,10.20
2018-03-16T13:36:12.524Z,10.20
2018-03-16T13:38:38.878Z,10.30
2018-03-16T13:41:05.798Z,10.30
2018-03-16T13:43:32.672Z,10.10
2018-03-16T13:45:58.996Z,10.00
2018-03-16T13:48:25.869Z,10.10
2018-03-16T13:50:52.239Z,10.20
2018-03-16T13:53:19.135Z,10.20
2018-03-16T13:55:45.294Z,10.20
2018-03-16T13:58:11.472Z,10.10
2018-03-16T14:00:38.522Z,9.90
2018-03-16T14:03:04.648Z,9.80
2018-03-16T14:05:30.874Z,10.00
2018-03-16T14:07:57.872Z,10.00
2018-03-16T14:10:24.153Z,9.90
2018-03-16T14:12:52.033Z,9.80
2018-03-16T14:15:19.327Z,9.60
2018-03-16T14:17:45.612Z,9.50
2018-03-16T14:20:12.455Z,9.60
2018-03-16T14:22:38.519Z,9.50
2018-03-16T14:25:05.518Z,9.60
2018-03-16T14:27:31.690Z,9.50
2018-03-16T14:29:57.921Z,9.50
2018-03-16T14:32:24.046Z,9.20
2018-03-16T14:34:50.124Z,9.00
2018-03-16T14:37:17.297Z,8.90
2018-03-16T14:39:44.335Z,8.80
2018-03-16T14:42:11.954Z,8.70
2018-03-16T14:44:38.189Z,8.90
2018-03-16T14:47:04.401Z,9.10
2018-03-16T14:49:31.882Z,9.40
2018-03-16T14:51:58.954Z,9.40
2018-03-16T14:54:26.016Z,9.10
2018-03-16T14:56:52.684Z,9.10
2018-03-16T14:59:19.009Z,8.80
2018-03-16T15:01:46.605Z,8.70
2018-03-16T15:04:13.334Z,8.70
2018-03-16T15:06:39.615Z,8.80
2018-03-16T15:09:05.861Z,8.80
2018-03-16T15:11:32.801Z,8.80
2018-03-16T15:13:59.399Z,8.70
2018-03-16T15:16:25.698Z,8.80
2018-03-16T15:18:52.230Z,8.80
2018-03-16T15:21:19.240Z,8.90
2018-03-16T15:23:46.430Z,9.00
2018-03-16T15:26:12.628Z,8.90
2018-03-16T15:28:38.866Z,8.80
2018-03-16T15:31:05.063Z,8.70
2018-03-16T15:33:31.544Z,8.70
2018-03-16T15:35:57.794Z,8.60
2018-03-16T15:38:25.398Z,8.40
2018-03-16T15:40:51.553Z,8.40
2018-03-16T15:43:18.280Z,8.40
2018-03-16T15:45:45.194Z,8.10
2018-03-16T15:48:12.200Z,8.00
2018-03-16T15:50:38.354Z,8.00
2018-03-16T15:53:04.739Z,7.70
2018-03-16T15:55:31.873Z,7.40
2018-03-16T15:57:58.870Z,7.40
2018-03-16T16:00:25.144Z,7.30
2018-03-16T16:02:51.272Z,7.40
2018-03-16T16:05:17.541Z,7.40
2018-03-16T16:07:45.072Z,7.30
2018-03-16T16:10:11.347Z,7.20
2018-03-16T16:12:37.633Z,7.30
2018-03-16T16:15:04.023Z,7.30
2018-03-16T16:17:31.165Z,7.50
2018-03-16T16:20:00.368Z,7.70
2018-03-16T16:22:30.367Z,7.60
2018-03-16T16:24:56.702Z,7.60
2018-03-16T16:27:22.899Z,7.40
2018-03-16T16:29:50.876Z,7.50
2018-03-16T16:32:17.179Z,7.50
2018-03-16T16:34:43.799Z,7.60
2018-03-16T16:37:11.010Z,7.60
2018-03-16T16:39:37.166Z,7.60
2018-03-16T16:42:03.767Z,7.60
2018-03-16T16:44:29.949Z,7.50
2018-03-16T16:46:57.216Z,7.50
2018-03-16T16:49:23.480Z,7.40
2018-03-16T16:51:50.438Z,7.50
2018-03-16T16:54:17.490Z,7.30
2018-03-16T16:56:44.695Z,7.10
2018-03-16T16:59:10.821Z,7.20
2018-03-16T17:01:39.636Z,7.10
2018-03-16T17:04:06.757Z,7.10
2018-03-16T17:06:33.041Z,7.20
2018-03-16T17:08:59.912Z,7.10
2018-03-16T17:11:26.066Z,7.00
2018-03-16T17:13:52.602Z,7.00
2018-03-16T17:16:19.846Z,7.00
2018-03-16T17:18:47.063Z,6.90
2018-03-16T17:21:13.298Z,7.10
2018-03-16T17:23:39.739Z,7.10
2018-03-16T17:26:05.968Z,7.20
2018-03-16T17:28:32.237Z,7.10
2018-03-16T17:30:58.739Z,7.00
2018-03-16T17:33:24.890Z,6.80
2018-03-16T17:35:52.326Z,6.60
2018-03-16T17:38:18.535Z,6.60
2018-03-16T17:40:44.672Z,6.50
2018-03-16T17:43:10.856Z,6.60
2018-03-16T17:45:37.194Z,6.60
2018-03-16T17:48:03.972Z,6.70
2018-03-16T17:50:30.042Z,6.80
2018-03-16T17:52:56.977Z,6.90
2018-03-16T17:55:23.194Z,7.00
2018-03-16T17:57:49.885Z,6.80
2018-03-16T18:00:17.731Z,6.70
2018-03-16T18:02:43.849Z,6.70
2018-03-16T18:05:10.575Z,6.50
2018-03-16T18:07:37.516Z,6.50
2018-03-16T18:10:04.221Z,6.50
2018-03-16T18:12:30.376Z,6.40
2018-03-16T18:14:57.388Z,6.40
2018-03-16T18:17:24.698Z,6.20
2018-03-16T18:19:51.216Z,6.20
2018-03-16T18:22:17.645Z,6.20
2018-03-16T18:24:44.551Z,6.10
2018-03-16T18:27:10.608Z,6.10
2018-03-16T18:29:37.671Z,6.40
2018-03-16T18:32:03.786Z,6.40
2018-03-16T18:34:30.739Z,6.40
2018-03-16T18:36:57.462Z,6.30
2018-03-16T18:39:24.455Z,6.10
2018-03-16T18:41:51.610Z,6.10
2018-03-16T18:44:17.930Z,6.00
2018-03-16T18:46:44.016Z,5.90
2018-03-16T18:49:10.103Z,6.00
2018-03-16T18:51:37.555Z,5.90
2018-03-16T18:54:04.450Z,5.80
2018-03-16T18:56:30.576Z,5.80
2018-03-16T18:58:56.671Z,5.80
2018-03-16T19:01:23.522Z,5.60
2018-03-16T19:03:49.645Z,5.50
2018-03-16T19:06:16.622Z,5.50
2018-03-16T19:08:43.451Z,5.40
2018-03-16T19:11:10.354Z,5.40
2018-03-16T19:13:36.537Z,5.30
2018-03-16T19:16:03.418Z,5.30
2018-03-16T19:18:29.469Z,5.40
2018-03-16T19:20:55.629Z,5.60
2018-03-16T19:23:22.630Z,5.60
2018-03-16T19:25:49.099Z,5.50
2018-03-16T19:28:15.163Z,5.40
2018-03-16T19:30:41.246Z,5.20
2018-03-16T19:33:07.342Z,5.00
2018-03-16T19:35:33.489Z,5.00
2018-03-16T19:38:00.546Z,4.80
2018-03-16T19:40:26.742Z,4.80
2018-03-16T19:42:55.085Z,4.80
2018-03-16T19:45:28.016Z,4.90
2018-03-16T19:47:54.120Z,4.80
2018-03-16T19:50:21.643Z,4.80
2018-03-16T19:52:47.834Z,4.80
2018-03-16T19:55:14.105Z,4.70
2018-03-16T19:57:40.583Z,4.90
2018-03-16T20:00:06.660Z,4.90
2018-03-16T20:02:34.872Z,4.70
2018-03-16T20:05:01.050Z,4.70
2018-03-16T20:07:27.195Z,4.70
2018-03-16T20:09:53.472Z,4.70
2018-03-16T20:12:19.569Z,4.60
2018-03-16T20:14:45.790Z,4.60
2018-03-16T20:17:12.221Z,4.40
2018-03-16T20:19:43.947Z,4.30
2018-03-16T20:22:10.286Z,4.20
2018-03-16T20:24:38.611Z,4.00
2018-03-16T20:27:05.404Z,3.90
2018-03-16T20:29:31.607Z,3.90
2018-03-16T20:31:57.692Z,4.00
2018-03-16T20:34:24.134Z,4.00
2018-03-16T20:36:50.280Z,3.90
2018-03-16T20:39:17.475Z,3.70
2018-03-16T20:41:43.534Z,3.70
2018-03-16T20:44:10.515Z,3.60
2018-03-16T20:46:36.704Z,3.50
2018-03-16T20:49:04.052Z,3.60
2018-03-16T20:51:30.241Z,3.50
2018-03-16T20:53:57.646Z,3.60
2018-03-16T20:56:23.833Z,3.60
2018-03-16T20:58:50.069Z,3.40
2018-03-16T21:01:16.290Z,3.30
2018-03-16T21:03:43.268Z,3.20
2018-03-16T21:06:09.430Z,3.30
2018-03-16T21:08:35.613Z,3.10
2018-03-16T21:11:01.716Z,3.10
2018-03-16T21:13:27.860Z,3.00
2018-03-16T21:15:53.909Z,3.10
2018-03-16T21:18:21.030Z,3.00
2018-03-16T21:20:47.249Z,2.90
2018-03-16T21:23:13.363Z,3.00
2018-03-16T21:25:39.437Z,3.00
2018-03-16T21:28:08.538Z,3.00
2018-03-16T21:30:36.565Z,2.90
2018-03-16T21:33:02.948Z,3.00
2018-03-16T21:35:30.957Z,3.10
2018-03-16T21:37:57.105Z,3.10
2018-03-16T21:40:23.216Z,3.10
2018-03-16T21:42:56.868Z,2.90
2018-03-16T21:45:24.514Z,2.80
2018-03-16T21:47:50.928Z,2.80
2018-03-16T21:50:17.208Z,2.70
2018-03-16T21:52:43.368Z,2.60
2018-03-16T21:55:13.972Z,2.80
2018-03-16T21:57:40.115Z,2.80
2018-03-16T22:00:06.936Z,2.80
2018-03-16T22:02:33.030Z,2.80
2018-03-16T22:05:01.422Z,2.80
2018-03-16T22:07:27.517Z,2.90
2018-03-16T22:09:53.625Z,2.70
2018-03-16T22:12:19.846Z,2.60
2018-03-16T22:14:46.089Z,2.40
2018-03-16T22:17:12.213Z,2.50
2018-03-16T22:19:39.904Z,2.40
2018-03-16T22:22:06.003Z,2.30
2018-03-16T22:24:32.782Z,2.50
2018-03-16T22:26:58.922Z,2.40
2018-03-16T22:29:25.022Z,2.30
2018-03-16T22:31:53.036Z,2.30
2018-03-16T22:34:19.176Z,2.20
2018-03-16T22:36:45.304Z,2.50
2018-03-16T22:39:11.429Z,2.60
2018-03-16T22:41:38.427Z,2.50
2018-03-16T22:44:05.274Z,2.30
2018-03-16T22:46:33.829Z,2.20
2018-03-16T22:49:01.645Z,2.20
2018-03-16T22:51:27.794Z,2.20
2018-03-16T22:53:53.966Z,2.30
2018-03-16T22:56:20.224Z,2.50
2018-03-16T22:58:47.051Z,2.50
2018-03-16T23:01:13.198Z,2.40
2018-03-16T23:03:40.445Z,2.50
2018-03-16T23:06:06.569Z,2.30
2018-03-16T23:08:32.711Z,2.40
2018-03-16T23:10:59.751Z,2.30
2018-03-16T23:13:26.663Z,2.20
2018-03-16T23:15:53.253Z,2.10
2018-03-16T23:18:19.440Z,2.20
2018-03-16T23:20:46.026Z,2.20
2018-03-16T23:23:12.459Z,2.20
2018-03-16T23:25:38.736Z,2.10
2018-03-16T23:28:05.037Z,2.20
2018-03-16T23:30:32.554Z,2.10
2018-03-16T23:32:58.603Z,2.10
2018-03-16T23:35:24.657Z,2.10
2018-03-16T23:37:50.718Z,2.20
2018-03-16T23:40:17.709Z,2.00
2018-03-16T23:42:43.900Z,2.00
2018-03-16T23:45:10.728Z,2.30
2018-03-16T23:47:36.860Z,2.30
2018-03-16T23:50:03.136Z,2.50
2018-03-16T23:52:29.216Z,2.40
2018-03-16T23:54:56.263Z,2.30
2018-03-16T23:57:22.429Z,2.20
2018-03-16T23:59:49.319Z,2.30
